Terminal Aerodrome Forecast
Issued by NWS Shreveport, LA

Home | Current Version | Previous Version | Text Only | Print | Product List | Glossary On
Versions: 1 2 3 4 5 6 7 8 9 10 11 12
000
FTUS44 KSHV 201100
TAFTYR
TAF
KTYR 201120Z 2012/2112 16005KT P6SM BKN060 BKN250
     FM201600 17008KT P6SM BKN060 BKN250
     FM210300 18006KT P6SM VCSH BKN060 OVC250=

USA.gov is the U.S. government's official web portal to all federal, state and local government web resources and services.